Time;durP1;ratioP1;P1;durP2;ratioP2;P2;SDS_P1;SDS_P2;PMS_P1;PMS_P2;Temp;Humidity;BMP_temperature;BMP_pressure;BME280_temperature;BME280_humidity;BME280_pressure;Samples;Min_cycle;Max_cycle;Signal;HPM_P1;HPM_P2
2022/03/23 00:00:21;;;;;;;6.45;4.15;;;;;;;;;;5101122;28;20047;-47
2022/03/23 00:02:49;;;;;;;10.63;6.47;;;;;;;;;;5097839;28;20567;-46
2022/03/23 00:05:17;;;;;;;5.65;4.57;;;;;;;;;;5095661;28;20097;-48
2022/03/23 00:07:43;;;;;;;7.18;3.97;;;;;;;;;;5096420;28;20073;-44
2022/03/23 00:10:09;;;;;;;12.07;5.90;;;;;;;;;;5097521;28;20052;-44
2022/03/23 00:12:34;;;;;;;5.15;3.08;;;;;;;;;;5093584;28;20122;-48
2022/03/23 00:14:59;;;;;;;9.52;5.00;;;;;;;;;;5095858;28;20118;-45
2022/03/23 00:17:24;;;;;;;8.10;3.67;;;;;;;;;;5098470;28;20040;-44
2022/03/23 00:19:50;;;;;;;12.82;4.05;;;;;;;;;;5097193;28;20056;-45
2022/03/23 00:22:15;;;;;;;7.18;3.92;;;;;;;;;;5096767;28;20609;-44
2022/03/23 00:24:40;;;;;;;14.52;4.50;;;;;;;;;;5095769;28;20048;-46
2022/03/23 00:27:06;;;;;;;7.80;5.45;;;;;;;;;;5102693;28;20052;-44
2022/03/23 00:29:31;;;;;;;4.93;4.40;;;;;;;;;;5095020;28;20101;-45
2022/03/23 00:31:57;;;;;;;4.32;3.85;;;;;;;;;;5095139;28;20047;-45
2022/03/23 00:34:22;;;;;;;5.38;3.05;;;;;;;;;;5097841;28;20110;-43
2022/03/23 00:36:47;;;;;;;15.80;5.10;;;;;;;;;;5096326;28;20038;-47
2022/03/23 00:39:13;;;;;;;11.23;5.40;;;;;;;;;;5094497;28;20515;-45
2022/03/23 00:41:38;;;;;;;28.05;4.90;;;;;;;;;;5098312;28;20107;-49
2022/03/23 00:44:03;;;;;;;7.75;4.25;;;;;;;;;;5096676;28;20154;-46
2022/03/23 00:46:30;;;;;;;8.90;5.25;;;;;;;;;;5097047;28;20051;-47
2022/03/23 00:48:55;;;;;;;11.60;5.85;;;;;;;;;;5093877;28;20052;-51
2022/03/23 00:51:21;;;;;;;8.50;4.57;;;;;;;;;;5094740;28;20048;-47
2022/03/23 00:53:46;;;;;;;7.72;4.55;;;;;;;;;;5096233;27;20468;-44
2022/03/23 00:56:11;;;;;;;13.27;5.22;;;;;;;;;;5100158;28;20051;-51
2022/03/23 00:58:36;;;;;;;7.75;5.07;;;;;;;;;;5096501;28;20043;-45
2022/03/23 01:01:02;;;;;;;3.78;3.22;;;;;;;;;;5097462;28;20047;-48
2022/03/23 01:03:27;;;;;;;9.52;4.85;;;;;;;;;;5093587;28;20082;-49
2022/03/23 01:05:52;;;;;;;11.77;5.20;;;;;;;;;;5095956;28;20654;-46
2022/03/23 01:08:18;;;;;;;8.27;4.85;;;;;;;;;;5097375;28;20517;-48
2022/03/23 01:10:43;;;;;;;11.80;5.28;;;;;;;;;;5098116;27;20549;-46
2022/03/23 01:13:10;;;;;;;7.95;3.40;;;;;;;;;;5092903;28;20040;-46
2022/03/23 01:15:36;;;;;;;10.55;4.07;;;;;;;;;;5096147;28;20131;-47
2022/03/23 01:18:01;;;;;;;13.73;4.20;;;;;;;;;;5093365;28;20123;-47
2022/03/23 01:20:26;;;;;;;11.73;4.82;;;;;;;;;;5098310;28;20063;-44
2022/03/23 01:22:52;;;;;;;10.75;4.43;;;;;;;;;;5098937;28;20048;-48
2022/03/23 01:25:18;;;;;;;8.88;4.95;;;;;;;;;;5095043;28;20499;-51
2022/03/23 01:27:44;;;;;;;8.95;3.78;;;;;;;;;;5097704;28;20069;-44
2022/03/23 01:30:11;;;;;;;4.80;4.28;;;;;;;;;;5094515;28;20048;-46
2022/03/23 01:32:37;;;;;;;5.30;3.67;;;;;;;;;;5094375;28;20503;-46
2022/03/23 01:35:03;;;;;;;15.07;4.57;;;;;;;;;;5095789;28;20108;-45
2022/03/23 01:37:29;;;;;;;12.27;4.78;;;;;;;;;;5095254;28;20364;-45
2022/03/23 01:39:54;;;;;;;5.60;3.78;;;;;;;;;;5097872;28;20043;-46
2022/03/23 01:42:20;;;;;;;14.82;4.45;;;;;;;;;;5094904;28;20036;-46
2022/03/23 01:44:45;;;;;;;5.32;3.63;;;;;;;;;;5095926;28;20032;-45
2022/03/23 01:47:15;;;;;;;9.30;4.63;;;;;;;;;;5095165;28;20527;-48
2022/03/23 01:49:42;;;;;;;11.70;5.20;;;;;;;;;;5096233;28;20048;-45
2022/03/23 01:52:09;;;;;;;12.23;4.18;;;;;;;;;;5092147;28;20032;-44
2022/03/23 01:54:35;;;;;;;13.75;4.85;;;;;;;;;;5099986;28;20052;-47
2022/03/23 01:57:02;;;;;;;5.75;3.75;;;;;;;;;;5098462;28;20039;-48
2022/03/23 01:59:27;;;;;;;10.32;4.80;;;;;;;;;;5101075;28;20093;-44
2022/03/23 02:01:53;;;;;;;8.50;4.32;;;;;;;;;;5100287;28;20079;-44
2022/03/23 02:04:18;;;;;;;8.07;6.13;;;;;;;;;;5099103;28;20088;-48
2022/03/23 02:06:44;;;;;;;9.77;4.47;;;;;;;;;;5099930;28;20050;-48
2022/03/23 02:09:09;;;;;;;6.32;4.35;;;;;;;;;;5101606;28;20451;-48
2022/03/23 02:11:35;;;;;;;4.40;3.65;;;;;;;;;;5100899;28;20599;-46
2022/03/23 02:14:00;;;;;;;9.05;5.45;;;;;;;;;;5099946;28;20054;-45
2022/03/23 02:16:25;;;;;;;4.80;2.63;;;;;;;;;;5096322;28;20161;-46
2022/03/23 02:18:51;;;;;;;6.30;3.97;;;;;;;;;;5100718;28;20043;-44
2022/03/23 02:21:16;;;;;;;8.38;4.85;;;;;;;;;;5098415;28;20801;-45
2022/03/23 02:23:42;;;;;;;5.38;2.92;;;;;;;;;;5099814;28;20040;-45
2022/03/23 02:26:08;;;;;;;8.45;4.20;;;;;;;;;;5096271;28;20092;-45
2022/03/23 02:28:34;;;;;;;13.50;4.32;;;;;;;;;;5098449;28;20047;-46
2022/03/23 02:31:01;;;;;;;6.60;4.45;;;;;;;;;;5098196;28;20047;-49
2022/03/23 02:33:26;;;;;;;6.35;3.83;;;;;;;;;;5099689;28;20056;-44
2022/03/23 02:35:52;;;;;;;7.63;2.88;;;;;;;;;;5101397;28;20051;-45
2022/03/23 02:38:17;;;;;;;7.22;3.83;;;;;;;;;;5099296;28;20434;-46
2022/03/23 02:40:43;;;;;;;5.22;3.63;;;;;;;;;;5102441;28;20047;-47
2022/03/23 02:43:08;;;;;;;4.10;2.90;;;;;;;;;;5102128;28;20049;-44
2022/03/23 02:45:34;;;;;;;6.55;3.83;;;;;;;;;;5101116;28;20133;-48
2022/03/23 02:47:59;;;;;;;13.25;5.03;;;;;;;;;;5099935;28;20051;-44
2022/03/23 02:50:26;;;;;;;4.05;2.80;;;;;;;;;;5098062;28;20055;-46
2022/03/23 03:03:59;;;;;;;5.40;3.88;;;;;;;;;;5095293;28;20526;-46
2022/03/23 03:06:24;;;;;;;6.88;3.70;;;;;;;;;;5099411;28;20078;-47
2022/03/23 03:08:49;;;;;;;6.20;3.63;;;;;;;;;;5099326;28;20086;-49
2022/03/23 03:11:16;;;;;;;6.85;3.15;;;;;;;;;;5101543;28;20060;-44
2022/03/23 03:13:41;;;;;;;11.43;3.60;;;;;;;;;;5100310;28;20052;-47
2022/03/23 03:16:07;;;;;;;6.95;2.80;;;;;;;;;;5099548;28;20048;-46
2022/03/23 03:18:33;;;;;;;4.65;2.95;;;;;;;;;;5099646;28;20044;-45
2022/03/23 03:21:00;;;;;;;7.97;4.82;;;;;;;;;;5100279;28;20518;-47
2022/03/23 03:23:25;;;;;;;4.57;3.40;;;;;;;;;;5098226;28;20048;-46
2022/03/23 03:25:51;;;;;;;5.68;2.92;;;;;;;;;;5101871;28;20058;-44
2022/03/23 03:28:16;;;;;;;5.10;2.53;;;;;;;;;;5093179;28;20055;-46
2022/03/23 03:30:42;;;;;;;10.77;2.92;;;;;;;;;;5096969;28;20498;-45
2022/03/23 03:33:07;;;;;;;7.85;2.97;;;;;;;;;;5102691;28;20088;-45
2022/03/23 03:35:32;;;;;;;4.10;3.47;;;;;;;;;;5098496;28;20036;-46
2022/03/23 03:37:58;;;;;;;5.57;2.45;;;;;;;;;;5100264;28;20474;-45
2022/03/23 03:40:24;;;;;;;4.57;1.92;;;;;;;;;;5101477;28;20071;-45
2022/03/23 03:42:49;;;;;;;3.78;3.28;;;;;;;;;;5099636;28;20116;-44
2022/03/23 03:45:14;;;;;;;10.10;3.95;;;;;;;;;;5100125;28;20047;-47
2022/03/23 03:47:39;;;;;;;3.63;2.45;;;;;;;;;;5100354;28;20108;-47
2022/03/23 03:50:05;;;;;;;2.88;1.80;;;;;;;;;;5099024;28;20040;-49
2022/03/23 03:52:30;;;;;;;11.75;3.55;;;;;;;;;;5097541;28;20205;-44
2022/03/23 03:54:55;;;;;;;9.30;4.50;;;;;;;;;;5100550;28;20511;-44
2022/03/23 03:57:21;;;;;;;9.18;2.83;;;;;;;;;;5093869;28;20048;-43
2022/03/23 03:59:46;;;;;;;7.68;3.33;;;;;;;;;;5095012;28;20032;-48
2022/03/23 04:02:13;;;;;;;4.70;3.17;;;;;;;;;;5097584;28;20042;-48
2022/03/23 04:04:39;;;;;;;5.35;2.60;;;;;;;;;;5098619;28;20067;-45
2022/03/23 04:07:04;;;;;;;4.50;3.35;;;;;;;;;;5097354;28;20039;-48
2022/03/23 04:09:29;;;;;;;8.30;3.85;;;;;;;;;;5099197;28;20060;-48
2022/03/23 04:11:55;;;;;;;7.43;3.85;;;;;;;;;;5097986;28;20117;-45
2022/03/23 04:14:20;;;;;;;8.60;2.78;;;;;;;;;;5097210;28;20074;-48
2022/03/23 04:16:45;;;;;;;10.18;3.30;;;;;;;;;;5093873;28;20983;-48
2022/03/23 04:19:11;;;;;;;10.05;3.25;;;;;;;;;;5095792;28;20058;-45
2022/03/23 04:21:36;;;;;;;5.25;3.65;;;;;;;;;;5096539;28;20044;-44
2022/03/23 04:24:01;;;;;;;3.38;2.58;;;;;;;;;;5099836;28;20142;-50
2022/03/23 04:26:27;;;;;;;8.18;3.05;;;;;;;;;;5096787;28;20036;-45
2022/03/23 04:28:52;;;;;;;4.60;2.40;;;;;;;;;;5096632;28;20052;-46
2022/03/23 04:31:18;;;;;;;5.22;3.28;;;;;;;;;;5097187;28;20581;-45
2022/03/23 04:33:44;;;;;;;15.85;3.42;;;;;;;;;;5099634;28;20043;-45
2022/03/23 04:36:09;;;;;;;4.05;2.72;;;;;;;;;;5100225;28;20096;-48
2022/03/23 04:38:34;;;;;;;6.07;4.50;;;;;;;;;;5097799;28;20134;-49
2022/03/23 04:41:00;;;;;;;5.07;2.53;;;;;;;;;;5098028;28;20552;-44
2022/03/23 04:43:25;;;;;;;4.07;2.97;;;;;;;;;;5098701;28;20051;-45
2022/03/23 04:45:50;;;;;;;3.95;2.97;;;;;;;;;;5097770;28;20530;-46
2022/03/23 04:48:16;;;;;;;4.90;2.60;;;;;;;;;;5097778;28;20040;-46
2022/03/23 04:50:42;;;;;;;6.03;3.03;;;;;;;;;;5093212;28;20051;-46
2022/03/23 04:53:07;;;;;;;11.88;3.70;;;;;;;;;;5100570;28;20560;-46
2022/03/23 04:55:32;;;;;;;7.20;3.80;;;;;;;;;;5098850;28;20376;-46
2022/03/23 04:58:00;;;;;;;3.15;2.58;;;;;;;;;;5097371;28;20096;-45
2022/03/23 05:00:26;;;;;;;4.57;2.92;;;;;;;;;;5094873;28;20476;-49
2022/03/23 05:02:51;;;;;;;6.78;3.40;;;;;;;;;;5096326;28;20069;-47
2022/03/23 05:05:16;;;;;;;5.05;2.88;;;;;;;;;;5097140;28;20341;-46
2022/03/23 05:07:42;;;;;;;9.18;4.78;;;;;;;;;;5096088;28;20503;-49
2022/03/23 05:10:08;;;;;;;4.75;2.90;;;;;;;;;;5094784;28;20042;-46
2022/03/23 05:12:34;;;;;;;5.68;3.75;;;;;;;;;;5099472;28;20127;-49
2022/03/23 05:14:59;;;;;;;2.70;2.10;;;;;;;;;;5097500;28;20166;-45
2022/03/23 05:17:25;;;;;;;8.50;3.40;;;;;;;;;;5097615;28;20835;-44
2022/03/23 05:19:50;;;;;;;4.93;1.67;;;;;;;;;;5095653;28;20646;-48
2022/03/23 05:22:15;;;;;;;19.85;3.78;;;;;;;;;;5097463;28;20044;-48
2022/03/23 05:24:41;;;;;;;5.82;2.97;;;;;;;;;;5098408;28;20135;-45
2022/03/23 05:27:08;;;;;;;4.07;2.70;;;;;;;;;;5094015;28;20597;-48
2022/03/23 05:29:34;;;;;;;2.67;2.42;;;;;;;;;;5095494;28;20123;-46
2022/03/23 05:31:59;;;;;;;3.05;1.80;;;;;;;;;;5090897;28;20186;-47
2022/03/23 05:34:24;;;;;;;5.10;3.25;;;;;;;;;;5096823;28;20040;-45
2022/03/23 05:36:49;;;;;;;11.93;3.63;;;;;;;;;;5098470;28;20043;-50
2022/03/23 05:39:15;;;;;;;12.63;4.10;;;;;;;;;;5097705;28;20043;-50
2022/03/23 05:41:40;;;;;;;4.43;2.72;;;;;;;;;;5094046;28;20047;-44
2022/03/23 05:44:05;;;;;;;2.42;2.03;;;;;;;;;;5097849;28;20076;-50
2022/03/23 05:46:31;;;;;;;5.10;3.65;;;;;;;;;;5098130;28;20051;-47
2022/03/23 05:48:56;;;;;;;7.15;3.83;;;;;;;;;;5096755;28;20101;-51
2022/03/23 05:51:23;;;;;;;4.07;3.22;;;;;;;;;;5097718;28;20422;-48
2022/03/23 05:53:49;;;;;;;6.72;3.83;;;;;;;;;;5095863;28;20054;-49
2022/03/23 05:56:14;;;;;;;7.68;4.88;;;;;;;;;;5093069;28;20056;-46
2022/03/23 05:58:39;;;;;;;8.65;5.55;;;;;;;;;;5096438;28;20521;-48
2022/03/23 06:01:05;;;;;;;11.85;4.43;;;;;;;;;;5094912;28;20041;-48
2022/03/23 06:03:31;;;;;;;9.00;4.75;;;;;;;;;;5098152;28;20044;-45
2022/03/23 06:05:56;;;;;;;7.05;3.88;;;;;;;;;;5094679;28;20051;-45
2022/03/23 06:08:21;;;;;;;5.82;3.42;;;;;;;;;;5095071;28;20487;-46
2022/03/23 06:10:47;;;;;;;4.63;3.15;;;;;;;;;;5098298;28;20032;-46
2022/03/23 06:13:12;;;;;;;5.93;4.18;;;;;;;;;;5098061;28;20039;-47
2022/03/23 06:15:38;;;;;;;9.88;5.90;;;;;;;;;;5096163;28;20131;-45
2022/03/23 06:18:03;;;;;;;13.90;8.52;;;;;;;;;;5094409;28;20433;-46
2022/03/23 06:20:29;;;;;;;11.15;4.25;;;;;;;;;;5095094;28;20051;-46
2022/03/23 06:22:54;;;;;;;7.32;4.55;;;;;;;;;;5092506;28;20048;-46
2022/03/23 06:25:20;;;;;;;10.93;3.70;;;;;;;;;;5095753;28;20589;-48
2022/03/23 06:27:45;;;;;;;4.47;4.03;;;;;;;;;;5095143;28;20036;-44
2022/03/23 06:30:11;;;;;;;5.03;3.05;;;;;;;;;;5096001;28;21261;-46
2022/03/23 06:32:36;;;;;;;6.97;3.80;;;;;;;;;;5093665;28;20154;-46
2022/03/23 06:35:02;;;;;;;10.50;5.47;;;;;;;;;;5093703;28;20052;-46
2022/03/23 06:37:27;;;;;;;4.43;3.20;;;;;;;;;;5094486;28;20113;-48
2022/03/23 06:39:52;;;;;;;10.55;9.52;;;;;;;;;;5098246;28;20101;-46
2022/03/23 06:42:18;;;;;;;13.20;4.72;;;;;;;;;;5097315;28;20139;-53
2022/03/23 06:44:43;;;;;;;5.88;3.70;;;;;;;;;;5100226;28;20043;-54
2022/03/23 06:47:08;;;;;;;8.90;4.95;;;;;;;;;;5097089;28;20050;-54
2022/03/23 06:49:34;;;;;;;16.45;5.85;;;;;;;;;;5098448;28;20050;-46
2022/03/23 06:51:59;;;;;;;7.70;3.40;;;;;;;;;;5093333;28;20550;-47
2022/03/23 06:54:24;;;;;;;5.97;4.32;;;;;;;;;;5098205;28;20043;-49
2022/03/23 06:56:51;;;;;;;8.82;3.85;;;;;;;;;;5094806;28;20562;-46
2022/03/23 06:59:17;;;;;;;7.38;3.65;;;;;;;;;;5096234;28;20052;-47
2022/03/23 07:01:43;;;;;;;5.40;3.47;;;;;;;;;;5101192;28;20054;-51
2022/03/23 07:04:08;;;;;;;7.65;4.38;;;;;;;;;;5098142;28;20043;-48
2022/03/23 07:06:33;;;;;;;7.45;3.85;;;;;;;;;;5096828;28;20105;-49
2022/03/23 07:11:42;;;;;;;8.40;3.67;;;;;;;;;;5101180;28;20040;-46
2022/03/23 07:14:08;;;;;;;7.57;3.65;;;;;;;;;;5096960;28;20411;-49
2022/03/23 07:16:33;;;;;;;13.32;6.35;;;;;;;;;;5099617;28;20506;-47
2022/03/23 07:18:58;;;;;;;9.68;3.45;;;;;;;;;;5101460;28;20143;-44
2022/03/23 07:21:23;;;;;;;8.93;3.60;;;;;;;;;;5098424;28;20079;-49
2022/03/23 07:23:49;;;;;;;6.13;3.90;;;;;;;;;;5100518;28;20046;-47
2022/03/23 07:26:15;;;;;;;5.40;3.97;;;;;;;;;;5095721;28;20578;-45
2022/03/23 07:28:41;;;;;;;3.50;2.60;;;;;;;;;;5103413;28;20047;-48
2022/03/23 07:31:06;;;;;;;18.98;5.32;;;;;;;;;;5098235;28;20036;-46
2022/03/23 07:33:31;;;;;;;9.07;4.65;;;;;;;;;;5101848;28;20051;-49
2022/03/23 07:35:57;;;;;;;16.40;3.72;;;;;;;;;;5099006;28;20051;-48
2022/03/23 07:38:22;;;;;;;17.42;4.50;;;;;;;;;;5097090;28;20613;-49
2022/03/23 07:40:47;;;;;;;9.20;3.85;;;;;;;;;;5098353;28;20043;-47
2022/03/23 07:43:13;;;;;;;8.45;3.25;;;;;;;;;;5098184;28;20047;-45
2022/03/23 07:45:38;;;;;;;10.43;5.25;;;;;;;;;;5098561;28;20079;-47
2022/03/23 07:48:03;;;;;;;9.25;4.82;;;;;;;;;;5097529;28;20035;-50
2022/03/23 07:50:29;;;;;;;18.35;7.22;;;;;;;;;;5098344;28;20833;-48
2022/03/23 07:52:54;;;;;;;5.88;3.08;;;;;;;;;;5099606;28;20035;-44
2022/03/23 07:55:20;;;;;;;9.60;4.10;;;;;;;;;;5099331;28;20510;-51
2022/03/23 07:57:45;;;;;;;33.70;4.45;;;;;;;;;;5097531;28;20562;-53
2022/03/23 08:00:11;;;;;;;6.45;2.92;;;;;;;;;;5099242;28;20100;-52
2022/03/23 08:02:36;;;;;;;4.10;3.70;;;;;;;;;;5097421;28;20485;-54
2022/03/23 08:05:02;;;;;;;8.70;4.07;;;;;;;;;;5096203;28;20386;-54
2022/03/23 08:07:28;;;;;;;10.07;5.05;;;;;;;;;;5091782;28;20556;-51
2022/03/23 08:09:53;;;;;;;14.10;4.20;;;;;;;;;;5097960;28;20109;-53
2022/03/23 08:12:18;;;;;;;4.13;3.58;;;;;;;;;;5097292;28;20055;-50
2022/03/23 08:14:44;;;;;;;5.88;3.55;;;;;;;;;;5095457;28;20063;-51
2022/03/23 08:17:10;;;;;;;12.27;5.97;;;;;;;;;;5098267;28;20044;-49
2022/03/23 08:19:36;;;;;;;5.05;3.83;;;;;;;;;;5098990;28;20092;-49
2022/03/23 08:22:01;;;;;;;7.93;4.50;;;;;;;;;;5097702;28;20031;-48
2022/03/23 08:24:27;;;;;;;13.48;5.72;;;;;;;;;;5095907;28;20052;-54
2022/03/23 08:26:53;;;;;;;7.28;4.60;;;;;;;;;;5097064;28;20047;-50
2022/03/23 08:29:19;;;;;;;7.88;2.83;;;;;;;;;;5097173;28;20044;-50
2022/03/23 08:31:44;;;;;;;10.05;6.57;;;;;;;;;;5095709;28;20063;-52
2022/03/23 08:34:09;;;;;;;5.82;3.95;;;;;;;;;;5098539;28;20227;-48
2022/03/23 08:36:35;;;;;;;6.43;4.03;;;;;;;;;;5094396;28;20047;-52
2022/03/23 08:39:00;;;;;;;13.52;6.88;;;;;;;;;;5097141;28;20126;-48
2022/03/23 08:41:27;;;;;;;7.75;6.13;;;;;;;;;;5095957;28;20040;-50
2022/03/23 08:43:53;;;;;;;9.20;4.25;;;;;;;;;;5099623;28;20143;-48
2022/03/23 08:46:19;;;;;;;19.48;5.88;;;;;;;;;;5099317;28;20522;-51
2022/03/23 08:48:44;;;;;;;5.95;4.57;;;;;;;;;;5099915;28;20044;-49
2022/03/23 08:51:11;;;;;;;9.00;4.97;;;;;;;;;;5098418;28;20056;-47
2022/03/23 08:53:38;;;;;;;6.45;4.00;;;;;;;;;;5096317;28;20085;-50
2022/03/23 08:56:04;;;;;;;8.43;5.28;;;;;;;;;;5095499;28;20701;-51
2022/03/23 08:58:29;;;;;;;5.78;4.47;;;;;;;;;;5095529;28;20220;-51
2022/03/23 09:00:55;;;;;;;6.05;4.80;;;;;;;;;;5096224;28;20526;-50
2022/03/23 09:03:20;;;;;;;18.92;5.20;;;;;;;;;;5098401;28;20185;-47
2022/03/23 09:05:45;;;;;;;6.30;3.45;;;;;;;;;;5092994;27;20082;-50
2022/03/23 09:08:11;;;;;;;5.07;2.90;;;;;;;;;;5098138;28;20080;-51
2022/03/23 09:10:36;;;;;;;7.40;4.30;;;;;;;;;;5095282;28;20059;-47
2022/03/23 09:13:02;;;;;;;8.02;4.95;;;;;;;;;;5099826;28;20035;-52
2022/03/23 09:15:27;;;;;;;7.05;5.13;;;;;;;;;;5097082;28;20046;-53
2022/03/23 09:17:58;;;;;;;6.18;5.60;;;;;;;;;;5096597;28;20070;-49
2022/03/23 09:20:25;;;;;;;11.20;6.25;;;;;;;;;;5097684;28;20510;-45
2022/03/23 09:22:52;;;;;;;10.68;5.15;;;;;;;;;;5094088;28;20535;-48
2022/03/23 09:25:18;;;;;;;7.88;6.18;;;;;;;;;;5094694;28;20100;-44
2022/03/23 09:27:44;;;;;;;7.05;3.88;;;;;;;;;;5102548;28;20031;-46
2022/03/23 09:30:11;;;;;;;11.52;5.93;;;;;;;;;;5095438;28;20479;-45
2022/03/23 09:32:36;;;;;;;10.15;4.65;;;;;;;;;;5100263;28;20117;-54
2022/03/23 09:35:02;;;;;;;6.72;3.53;;;;;;;;;;5098213;28;20040;-52
2022/03/23 09:40:11;;;;;;;10.18;7.35;;;;;;;;;;5093909;28;20097;-45
2022/03/23 09:42:39;;;;;;;10.70;4.13;;;;;;;;;;5098015;28;20043;-52
2022/03/23 09:45:05;;;;;;;11.98;4.47;;;;;;;;;;5097439;28;20084;-48
2022/03/23 09:47:30;;;;;;;5.70;4.03;;;;;;;;;;5096813;28;20047;-50
2022/03/23 09:49:56;;;;;;;3.55;3.17;;;;;;;;;;5094219;28;20131;-48
2022/03/23 09:52:21;;;;;;;18.05;3.70;;;;;;;;;;5094034;28;20052;-50
2022/03/23 09:54:46;;;;;;;3.45;2.85;;;;;;;;;;5095834;28;20126;-51
2022/03/23 09:57:13;;;;;;;6.60;2.80;;;;;;;;;;5094947;28;20044;-48
2022/03/23 09:59:39;;;;;;;10.95;5.28;;;;;;;;;;5097986;28;20056;-51
2022/03/23 10:02:04;;;;;;;5.90;3.78;;;;;;;;;;5095247;28;20559;-48
2022/03/23 10:04:48;;;;;;;6.88;3.63;;;;;;;;;;5094874;28;20055;-50
2022/03/23 10:07:15;;;;;;;5.82;3.35;;;;;;;;;;5091665;28;20036;-51
2022/03/23 10:09:49;;;;;;;11.00;4.43;;;;;;;;;;5095468;28;20052;-51
2022/03/23 10:12:33;;;;;;;4.80;3.67;;;;;;;;;;5095512;28;20040;-52
2022/03/23 10:15:13;;;;;;;13.15;5.20;;;;;;;;;;5097003;28;20875;-52
2022/03/23 10:17:45;;;;;;;8.80;3.78;;;;;;;;;;5099784;28;20066;-50
2022/03/23 10:20:11;;;;;;;5.40;4.22;;;;;;;;;;5098750;28;20217;-53
2022/03/23 10:22:44;;;;;;;4.05;3.65;;;;;;;;;;5099152;28;20181;-52
2022/03/23 10:25:10;;;;;;;10.68;3.88;;;;;;;;;;5098000;28;20138;-52
2022/03/23 10:27:35;;;;;;;6.13;3.58;;;;;;;;;;5099583;28;20163;-52
2022/03/23 10:30:00;;;;;;;14.18;4.00;;;;;;;;;;5098801;28;20040;-49
2022/03/23 10:32:33;;;;;;;9.20;4.25;;;;;;;;;;5099403;28;20036;-52
2022/03/23 10:34:58;;;;;;;3.70;3.30;;;;;;;;;;5098908;28;20166;-52
2022/03/23 10:37:28;;;;;;;6.45;3.47;;;;;;;;;;5099282;28;20532;-52
2022/03/23 10:39:54;;;;;;;6.22;4.00;;;;;;;;;;5101715;28;20043;-53
2022/03/23 10:42:21;;;;;;;6.63;5.22;;;;;;;;;;5098571;28;20059;-53
2022/03/23 10:44:47;;;;;;;10.10;6.43;;;;;;;;;;5098412;28;20137;-50
2022/03/23 10:47:24;;;;;;;7.00;4.90;;;;;;;;;;5102508;28;20071;-46
2022/03/23 10:49:49;;;;;;;7.90;3.92;;;;;;;;;;5102204;28;20036;-45
2022/03/23 10:52:16;;;;;;;3.17;2.00;;;;;;;;;;5098963;28;20079;-49
2022/03/23 10:54:58;;;;;;;5.05;3.35;;;;;;;;;;5099014;28;20494;-50
2022/03/23 10:57:42;;;;;;;6.30;3.15;;;;;;;;;;5093768;28;20518;-51
2022/03/23 11:00:07;;;;;;;4.22;3.47;;;;;;;;;;5098941;28;20055;-49
2022/03/23 11:02:45;;;;;;;12.35;3.83;;;;;;;;;;5096901;28;20036;-51
2022/03/23 11:05:10;;;;;;;6.43;3.42;;;;;;;;;;5100340;28;20164;-47
2022/03/23 11:07:38;;;;;;;6.75;6.07;;;;;;;;;;5099322;27;20526;-50
2022/03/23 11:15:48;;;;;;;4.40;2.47;;;;;;;;;;5099585;28;20051;-51
2022/03/23 11:18:17;;;;;;;3.13;2.45;;;;;;;;;;5098045;28;20067;-48
2022/03/23 11:20:48;;;;;;;6.65;2.75;;;;;;;;;;5100990;28;20047;-52
2022/03/23 11:23:20;;;;;;;3.13;2.28;;;;;;;;;;5094938;28;20052;-49
2022/03/23 11:25:46;;;;;;;4.15;3.08;;;;;;;;;;5098598;27;20140;-53
2022/03/23 11:28:13;;;;;;;8.02;3.80;;;;;;;;;;5096538;28;20051;-48
2022/03/23 11:30:42;;;;;;;7.10;2.97;;;;;;;;;;5097760;27;20040;-50
2022/03/23 11:33:09;;;;;;;5.25;3.00;;;;;;;;;;5100509;28;20060;-53
2022/03/23 11:35:36;;;;;;;4.38;3.17;;;;;;;;;;5097246;28;20047;-49
2022/03/23 11:38:03;;;;;;;7.32;4.70;;;;;;;;;;5094126;28;20359;-50
2022/03/23 11:40:30;;;;;;;4.32;2.80;;;;;;;;;;5093958;28;20043;-50
2022/03/23 11:42:55;;;;;;;4.60;3.08;;;;;;;;;;5095324;28;20048;-51
2022/03/23 11:45:21;;;;;;;9.15;2.72;;;;;;;;;;5093811;28;20036;-51
2022/03/23 11:47:52;;;;;;;6.28;3.25;;;;;;;;;;5095343;28;20799;-47
2022/03/23 11:50:18;;;;;;;4.47;3.22;;;;;;;;;;5097307;28;20036;-48
2022/03/23 11:52:50;;;;;;;10.07;4.15;;;;;;;;;;5095313;28;20039;-47
2022/03/23 11:58:21;;;;;;;8.60;3.67;;;;;;;;;;5094971;28;20130;-50
2022/03/23 12:00:53;;;;;;;3.25;1.92;;;;;;;;;;5093930;28;20063;-46
2022/03/23 12:03:37;;;;;;;3.58;2.67;;;;;;;;;;5093353;28;20143;-52
2022/03/23 12:06:28;;;;;;;3.95;1.40;;;;;;;;;;5094433;28;20087;-49
2022/03/23 12:08:57;;;;;;;3.92;2.70;;;;;;;;;;5088513;28;20050;-51
2022/03/23 12:11:44;;;;;;;3.47;2.15;;;;;;;;;;5096347;28;20122;-52
2022/03/23 12:14:29;;;;;;;2.97;1.23;;;;;;;;;;5095984;28;20039;-50
2022/03/23 12:16:55;;;;;;;4.88;2.03;;;;;;;;;;5096056;28;20535;-49
2022/03/23 12:19:28;;;;;;;3.55;2.22;;;;;;;;;;5096023;28;20039;-49
2022/03/23 12:21:55;;;;;;;2.15;1.20;;;;;;;;;;5095164;28;20076;-52
2022/03/23 12:24:42;;;;;;;2.05;1.25;;;;;;;;;;5094898;28;20054;-51
2022/03/23 12:27:13;;;;;;;1.98;1.27;;;;;;;;;;5098264;28;20126;-49
2022/03/23 12:29:40;;;;;;;6.53;2.17;;;;;;;;;;5094314;28;20042;-49
2022/03/23 12:32:08;;;;;;;5.65;3.05;;;;;;;;;;5096426;28;20051;-47
2022/03/23 12:34:34;;;;;;;2.97;1.58;;;;;;;;;;5096313;28;20058;-52
2022/03/23 12:37:07;;;;;;;8.20;2.80;;;;;;;;;;5093039;28;20047;-48
2022/03/23 12:39:59;;;;;;;7.20;2.97;;;;;;;;;;5092776;28;20039;-47
2022/03/23 12:42:30;;;;;;;3.70;3.13;;;;;;;;;;5090528;28;20089;-51
2022/03/23 12:45:07;;;;;;;4.93;3.40;;;;;;;;;;5094803;28;20043;-47
2022/03/23 12:47:34;;;;;;;10.15;4.72;;;;;;;;;;5094768;28;20143;-49
2022/03/23 12:58:26;;;;;;;5.15;3.88;;;;;;;;;;5093377;28;20089;-50
2022/03/23 13:00:53;;;;;;;11.57;3.08;;;;;;;;;;5093678;28;20555;-50
2022/03/23 13:03:22;;;;;;;7.45;5.97;;;;;;;;;;5092995;28;20152;-46
2022/03/23 13:05:54;;;;;;;17.45;7.35;;;;;;;;;;5093039;28;20824;-50
2022/03/23 13:08:33;;;;;;;13.73;2.90;;;;;;;;;;5090864;28;20058;-46
2022/03/23 13:10:58;;;;;;;4.68;3.63;;;;;;;;;;5094165;28;20055;-50
2022/03/23 13:13:24;;;;;;;5.60;4.78;;;;;;;;;;5093346;27;20422;-60
2022/03/23 13:15:50;;;;;;;7.25;4.68;;;;;;;;;;5097038;28;20044;-60
2022/03/23 13:18:16;;;;;;;7.43;3.95;;;;;;;;;;5093883;28;20054;-59
2022/03/23 13:20:49;;;;;;;13.48;4.47;;;;;;;;;;5090640;28;20587;-60
2022/03/23 13:23:17;;;;;;;7.30;4.10;;;;;;;;;;5091949;28;20052;-61
2022/03/23 13:25:43;;;;;;;17.77;3.90;;;;;;;;;;5092480;28;20533;-59
2022/03/23 13:28:15;;;;;;;6.40;3.17;;;;;;;;;;5094755;28;20039;-56
2022/03/23 13:30:43;;;;;;;5.78;3.08;;;;;;;;;;5093911;28;20040;-56
2022/03/23 13:33:10;;;;;;;5.88;3.00;;;;;;;;;;5091977;28;20048;-61
2022/03/23 13:35:45;;;;;;;10.63;3.85;;;;;;;;;;5094800;28;20047;-58
2022/03/23 13:38:11;;;;;;;14.80;4.35;;;;;;;;;;5092191;28;20082;-57
2022/03/23 13:43:24;;;;;;;6.95;3.72;;;;;;;;;;5094524;28;20419;-59
2022/03/23 13:45:52;;;;;;;8.45;5.03;;;;;;;;;;5091481;28;20044;-59
2022/03/23 13:48:17;;;;;;;6.20;4.40;;;;;;;;;;5093660;28;20067;-58
2022/03/23 13:50:48;;;;;;;7.10;4.47;;;;;;;;;;5094869;28;20059;-58
2022/03/23 13:53:14;;;;;;;9.27;4.22;;;;;;;;;;5096979;28;20118;-58
2022/03/23 13:55:40;;;;;;;6.07;3.60;;;;;;;;;;5094421;28;20824;-64
2022/03/23 13:58:06;;;;;;;15.43;4.72;;;;;;;;;;5089124;28;20044;-56
2022/03/23 14:00:32;;;;;;;15.90;4.93;;;;;;;;;;5091970;28;20118;-64
2022/03/23 14:02:57;;;;;;;10.13;4.72;;;;;;;;;;5096674;28;20052;-69
2022/03/23 14:05:35;;;;;;;6.95;3.95;;;;;;;;;;5094831;28;20357;-67
2022/03/23 14:08:00;;;;;;;13.65;4.85;;;;;;;;;;5092894;28;20095;-57
2022/03/23 14:10:29;;;;;;;7.30;3.67;;;;;;;;;;5092369;28;20036;-56
2022/03/23 14:12:56;;;;;;;11.38;3.00;;;;;;;;;;5094732;28;20447;-59
2022/03/23 14:15:22;;;;;;;6.45;4.35;;;;;;;;;;5091075;28;20063;-56
2022/03/23 14:17:47;;;;;;;10.65;5.18;;;;;;;;;;5094255;28;20028;-56
2022/03/23 14:20:13;;;;;;;14.85;5.18;;;;;;;;;;5094444;28;20036;-61
2022/03/23 14:22:38;;;;;;;7.75;4.03;;;;;;;;;;5094931;28;20516;-61
2022/03/23 14:25:04;;;;;;;7.60;4.78;;;;;;;;;;5091150;28;20052;-61
2022/03/23 14:27:36;;;;;;;7.88;4.70;;;;;;;;;;5090823;28;20063;-60
2022/03/23 14:32:30;;;;;;;8.77;4.13;;;;;;;;;;5095406;28;20044;-59
2022/03/23 14:34:56;;;;;;;11.05;4.70;;;;;;;;;;5091116;28;20079;-59
2022/03/23 14:37:31;;;;;;;7.68;4.00;;;;;;;;;;5094805;28;20075;-58
2022/03/23 14:39:58;;;;;;;5.95;3.00;;;;;;;;;;5096399;28;20048;-59
2022/03/23 14:42:30;;;;;;;8.32;3.13;;;;;;;;;;5095386;28;20053;-60
2022/03/23 14:44:59;;;;;;;6.20;2.42;;;;;;;;;;5094678;28;20052;-59
2022/03/23 14:47:44;;;;;;;4.53;3.13;;;;;;;;;;5095636;28;20515;-59
2022/03/23 14:50:09;;;;;;;6.68;2.67;;;;;;;;;;5093881;28;20046;-60
2022/03/23 14:52:35;;;;;;;9.50;5.18;;;;;;;;;;5095071;28;20043;-60
2022/03/23 14:55:01;;;;;;;3.15;2.35;;;;;;;;;;5096907;28;20158;-59
2022/03/23 14:57:26;;;;;;;3.97;2.70;;;;;;;;;;5094652;28;20053;-59
2022/03/23 14:59:52;;;;;;;1.90;1.30;;;;;;;;;;5094062;28;20541;-59
2022/03/23 15:02:18;;;;;;;7.82;3.00;;;;;;;;;;5100364;28;20078;-60
2022/03/23 15:04:44;;;;;;;3.95;2.47;;;;;;;;;;5100468;28;20128;-59
2022/03/23 15:13:15;;;;;;;3.42;2.67;;;;;;;;;;5097956;28;20700;-59
2022/03/23 15:15:43;;;;;;;5.68;3.30;;;;;;;;;;5095655;28;20412;-59
2022/03/23 15:18:12;;;;;;;6.85;3.20;;;;;;;;;;5100420;28;20600;-60
2022/03/23 15:20:38;;;;;;;3.78;2.50;;;;;;;;;;5101136;28;20047;-59
2022/03/23 15:23:03;;;;;;;18.23;4.60;;;;;;;;;;5099002;28;20040;-60